Time;durP1;ratioP1;P1;durP2;ratioP2;P2;SDS_P1;SDS_P2;PMS_P1;PMS_P2;Temp;Humidity;BMP_temperature;BMP_pressure;BME280_temperature;BME280_humidity;BME280_pressure;Samples;Min_cycle;Max_cycle;Signal;HPM_P1;HPM_P2
2022/03/30 00:00:14;;;;;;;20.48;8.27;;;7.20;99.90;;;;;;4930965;29;20148;-79
2022/03/30 00:02:40;;;;;;;19.05;7.80;;;7.20;99.90;;;;;;4913030;29;20361;-80
2022/03/30 00:05:06;;;;;;;15.80;7.40;;;7.20;99.90;;;;;;4913966;29;20036;-81
2022/03/30 00:07:32;;;;;;;20.00;7.95;;;7.20;99.90;;;;;;4895444;29;20050;-79
2022/03/30 00:10:07;;;;;;;18.35;8.27;;;7.20;99.90;;;;;;4895736;29;20043;-82
2022/03/30 00:12:34;;;;;;;20.83;7.60;;;7.20;99.90;;;;;;4896858;29;20071;-80
2022/03/30 00:15:00;;;;;;;18.98;8.15;;;7.20;99.90;;;;;;4913455;29;20048;-79
2022/03/30 00:17:26;;;;;;;18.77;8.27;;;7.20;99.90;;;;;;4912600;29;20135;-79
2022/03/30 00:19:52;;;;;;;14.40;7.05;;;7.20;99.90;;;;;;4896441;29;20043;-80
2022/03/30 00:22:18;;;;;;;15.02;6.43;;;7.20;99.90;;;;;;4929591;29;20047;-81
2022/03/30 00:24:44;;;;;;;19.25;7.80;;;7.10;99.90;;;;;;4912167;29;20047;-80
2022/03/30 00:27:11;;;;;;;16.50;6.65;;;7.10;99.90;;;;;;4896099;29;20107;-79
2022/03/30 00:29:37;;;;;;;19.85;8.35;;;6.90;99.90;;;;;;4913801;29;20447;-79
2022/03/30 00:32:03;;;;;;;16.95;6.65;;;6.90;99.90;;;;;;4914254;29;20127;-82
2022/03/30 00:34:29;;;;;;;11.60;6.00;;;6.70;99.90;;;;;;4913496;29;20496;-79
2022/03/30 00:36:55;;;;;;;18.08;7.18;;;6.60;99.90;;;;;;4910497;29;20102;-79
2022/03/30 00:39:20;;;;;;;14.35;7.40;;;6.60;99.90;;;;;;4898520;29;20461;-79
2022/03/30 00:41:46;;;;;;;17.25;7.38;;;6.60;99.90;;;;;;4931684;29;20044;-80
2022/03/30 00:44:14;;;;;;;18.52;9.50;;;6.50;99.90;;;;;;4913363;29;20367;-80
2022/03/30 00:46:42;;;;;;;14.73;7.22;;;6.40;99.90;;;;;;4906781;29;20469;-80
2022/03/30 00:49:09;;;;;;;14.70;8.40;;;6.40;99.90;;;;;;4928565;29;20047;-80
2022/03/30 00:51:35;;;;;;;13.20;7.05;;;6.40;99.90;;;;;;4904541;29;20496;-81
2022/03/30 00:54:01;;;;;;;18.70;7.90;;;6.40;99.90;;;;;;4914056;29;20114;-82
2022/03/30 00:56:30;;;;;;;16.50;7.13;;;6.40;99.90;;;;;;4898536;29;20043;-80
2022/03/30 00:58:56;;;;;;;17.55;8.15;;;6.50;99.90;;;;;;4914616;29;20043;-82
2022/03/30 01:01:23;;;;;;;15.60;7.55;;;6.50;99.90;;;;;;4912214;29;20044;-86
2022/03/30 01:03:49;;;;;;;17.20;7.57;;;6.60;99.90;;;;;;4896207;29;20087;-84
2022/03/30 01:06:15;;;;;;;13.48;7.10;;;6.60;99.90;;;;;;4897576;29;20422;-85
2022/03/30 01:08:40;;;;;;;23.05;8.60;;;6.60;99.90;;;;;;4913585;29;20312;-85
2022/03/30 01:11:10;;;;;;;16.25;7.43;;;6.70;99.90;;;;;;4930170;29;20032;-85
2022/03/30 01:13:35;;;;;;;13.90;6.45;;;6.70;99.90;;;;;;4898197;29;20043;-85
2022/03/30 01:16:02;;;;;;;19.88;8.80;;;6.60;99.90;;;;;;4913595;29;20404;-85
2022/03/30 01:18:28;;;;;;;17.88;8.52;;;6.60;99.90;;;;;;4896985;29;20032;-85
2022/03/30 01:20:53;;;;;;;21.08;8.45;;;6.60;99.90;;;;;;4894373;29;20048;-85
2022/03/30 01:23:19;;;;;;;16.05;7.45;;;6.60;99.90;;;;;;4930465;29;20168;-86
2022/03/30 01:25:45;;;;;;;17.90;7.60;;;6.60;99.90;;;;;;4897149;29;20066;-85
2022/03/30 01:28:11;;;;;;;18.30;5.97;;;6.60;99.90;;;;;;4913222;29;20370;-85
2022/03/30 01:33:21;;;;;;;22.08;8.00;;;6.60;99.90;;;;;;4931361;29;20050;-85
2022/03/30 01:35:47;;;;;;;15.75;7.20;;;6.50;99.90;;;;;;4900176;29;20405;-86
2022/03/30 01:38:13;;;;;;;18.30;8.30;;;6.50;99.90;;;;;;4917250;29;20040;-85
2022/03/30 01:40:39;;;;;;;20.45;7.40;;;6.50;99.90;;;;;;4898868;29;20048;-85
2022/03/30 01:43:05;;;;;;;14.30;6.85;;;6.50;99.90;;;;;;4916434;29;20047;-86
2022/03/30 01:45:31;;;;;;;15.68;8.13;;;6.40;99.90;;;;;;4917433;29;20047;-85
2022/03/30 01:47:59;;;;;;;15.30;7.00;;;6.50;99.90;;;;;;4918472;29;20528;-86
2022/03/30 01:50:26;;;;;;;17.40;7.90;;;6.50;99.90;;;;;;4912568;29;20103;-85
2022/03/30 01:52:52;;;;;;;20.13;7.82;;;6.50;99.90;;;;;;4931478;29;20047;-86
2022/03/30 01:55:18;;;;;;;18.75;7.85;;;6.50;99.90;;;;;;4914026;29;20032;-86
2022/03/30 01:57:45;;;;;;;18.00;8.60;;;6.50;99.90;;;;;;4916505;29;20090;-85
2022/03/30 02:00:13;;;;;;;14.35;6.35;;;6.50;99.90;;;;;;4897946;29;20059;-86
2022/03/30 02:02:40;;;;;;;18.80;7.93;;;6.50;99.90;;;;;;4917948;29;20175;-86
2022/03/30 02:05:10;;;;;;;13.32;7.43;;;6.50;99.90;;;;;;4903137;29;20073;-85
2022/03/30 02:07:37;;;;;;;27.80;8.48;;;6.50;99.90;;;;;;4899109;29;20047;-85
2022/03/30 02:10:04;;;;;;;21.45;9.45;;;6.50;99.90;;;;;;4914843;29;20043;-85
2022/03/30 02:12:30;;;;;;;19.85;8.05;;;6.60;99.90;;;;;;4913598;29;20048;-85
2022/03/30 02:14:56;;;;;;;21.70;9.82;;;6.60;99.90;;;;;;4900324;29;20066;-85
2022/03/30 02:17:24;;;;;;;21.83;8.95;;;6.60;99.90;;;;;;4901241;29;20044;-85
2022/03/30 02:19:50;;;;;;;15.10;7.85;;;6.60;99.90;;;;;;4933967;29;20062;-86
2022/03/30 02:22:15;;;;;;;18.70;8.45;;;6.50;99.90;;;;;;4883816;29;20496;-85
2022/03/30 02:24:41;;;;;;;22.27;9.80;;;6.50;99.90;;;;;;4918504;29;20044;-84
2022/03/30 02:27:07;;;;;;;21.33;10.50;;;6.50;99.90;;;;;;4901594;29;20455;-85
2022/03/30 02:29:34;;;;;;;20.38;9.02;;;6.50;99.90;;;;;;4905327;29;20063;-86
2022/03/30 02:32:01;;;;;;;20.55;9.65;;;6.50;99.90;;;;;;4916883;29;20051;-85
2022/03/30 02:34:27;;;;;;;20.92;10.38;;;6.50;99.90;;;;;;4899443;29;20184;-86
2022/03/30 02:36:53;;;;;;;22.70;10.00;;;6.50;99.90;;;;;;4939717;29;20082;-86
2022/03/30 02:39:19;;;;;;;22.63;9.52;;;6.40;99.90;;;;;;4919534;29;20047;-86
2022/03/30 02:41:46;;;;;;;16.10;8.50;;;6.30;99.90;;;;;;4915681;29;20047;-84
2022/03/30 02:44:12;;;;;;;27.30;10.18;;;6.30;99.90;;;;;;4897731;29;20044;-84
2022/03/30 02:46:38;;;;;;;14.15;7.03;;;6.20;99.90;;;;;;4917751;29;20123;-86
2022/03/30 02:49:04;;;;;;;19.13;8.52;;;6.20;99.90;;;;;;4904558;29;20055;-85
2022/03/30 02:51:30;;;;;;;21.33;9.30;;;6.10;99.90;;;;;;4901393;29;20042;-85
2022/03/30 02:53:56;;;;;;;20.35;9.60;;;6.00;99.90;;;;;;4897825;29;20152;-85
2022/03/30 02:56:21;;;;;;;23.33;10.25;;;6.00;99.90;;;;;;4904495;29;20452;-84
2022/03/30 02:58:47;;;;;;;20.40;9.80;;;5.90;99.90;;;;;;4912573;29;20051;-85
2022/03/30 03:01:13;;;;;;;21.15;9.32;;;5.90;99.90;;;;;;4900499;29;20378;-85
2022/03/30 03:03:40;;;;;;;17.00;8.80;;;5.80;99.90;;;;;;4901586;29;20043;-86
2022/03/30 03:06:06;;;;;;;21.23;10.30;;;5.80;99.90;;;;;;4917119;29;20046;-85
2022/03/30 03:08:32;;;;;;;18.55;9.57;;;5.80;99.90;;;;;;4916191;29;20122;-85
2022/03/30 03:10:58;;;;;;;21.33;9.65;;;5.80;99.90;;;;;;4900802;29;20398;-86
2022/03/30 03:13:25;;;;;;;22.27;10.57;;;5.90;99.90;;;;;;4901724;29;20429;-86
2022/03/30 03:15:51;;;;;;;19.15;9.77;;;5.90;99.90;;;;;;4900491;29;20491;-85
2022/03/30 03:18:17;;;;;;;20.63;9.75;;;5.90;99.90;;;;;;4895325;29;20048;-86
2022/03/30 03:20:45;;;;;;;21.75;9.95;;;5.90;99.90;;;;;;4921034;29;20127;-86
2022/03/30 03:23:12;;;;;;;17.52;9.02;;;6.00;99.90;;;;;;4892600;29;20091;-85
2022/03/30 03:25:40;;;;;;;17.95;9.00;;;6.00;99.90;;;;;;4912721;29;20040;-85
2022/03/30 03:28:08;;;;;;;19.05;9.95;;;6.00;99.90;;;;;;4918498;29;20036;-85
2022/03/30 03:30:34;;;;;;;17.80;9.50;;;6.00;99.90;;;;;;4896486;29;20071;-85
2022/03/30 03:33:01;;;;;;;21.20;10.27;;;6.00;99.90;;;;;;4931776;29;20031;-85
2022/03/30 03:35:27;;;;;;;20.77;10.45;;;6.10;99.90;;;;;;4900017;29;20048;-86
2022/03/30 03:37:54;;;;;;;19.80;10.73;;;6.10;99.90;;;;;;4913264;29;20130;-85
2022/03/30 03:40:20;;;;;;;19.13;9.73;;;6.10;99.90;;;;;;4915120;29;20122;-85
2022/03/30 03:42:45;;;;;;;18.42;9.68;;;6.10;99.90;;;;;;4901744;29;20099;-86
2022/03/30 03:45:11;;;;;;;18.15;9.63;;;6.10;99.90;;;;;;4900370;29;20035;-84
2022/03/30 03:47:38;;;;;;;20.90;10.02;;;6.10;99.90;;;;;;4898213;29;20044;-85
2022/03/30 03:50:04;;;;;;;13.25;7.72;;;6.10;99.90;;;;;;4899087;29;20715;-86
2022/03/30 03:52:31;;;;;;;22.77;10.63;;;6.20;99.90;;;;;;4914016;29;20031;-86
2022/03/30 03:54:56;;;;;;;20.25;9.98;;;6.20;99.90;;;;;;4899854;29;20038;-86
2022/03/30 03:57:22;;;;;;;24.83;11.07;;;6.30;99.90;;;;;;4899061;29;20479;-86
2022/03/30 03:59:48;;;;;;;21.17;9.40;;;6.30;99.90;;;;;;4902749;29;20481;-85
2022/03/30 04:02:13;;;;;;;21.88;10.07;;;6.30;99.90;;;;;;4915353;29;20164;-86
2022/03/30 04:04:39;;;;;;;23.30;9.80;;;6.30;99.90;;;;;;4915046;29;20044;-85
2022/03/30 04:07:05;;;;;;;24.17;10.65;;;6.30;99.90;;;;;;4914792;29;20107;-85
2022/03/30 04:09:31;;;;;;;21.65;9.15;;;6.40;99.90;;;;;;4898755;29;20154;-85
2022/03/30 04:11:57;;;;;;;20.83;10.57;;;6.40;99.90;;;;;;4892711;29;20538;-85
2022/03/30 04:14:23;;;;;;;17.85;9.95;;;6.40;99.90;;;;;;4899918;29;20548;-85
2022/03/30 04:16:49;;;;;;;21.15;9.65;;;6.40;99.90;;;;;;4913686;29;20044;-86
2022/03/30 04:19:17;;;;;;;19.35;8.48;;;6.40;99.90;;;;;;4912660;29;20502;-85
2022/03/30 04:21:43;;;;;;;20.80;10.48;;;6.40;99.90;;;;;;4914458;29;20143;-85
2022/03/30 04:24:10;;;;;;;18.75;9.43;;;6.40;99.90;;;;;;4914990;29;20095;-85
2022/03/30 04:26:36;;;;;;;16.77;7.97;;;6.40;99.90;;;;;;4899179;29;20053;-85
2022/03/30 04:29:03;;;;;;;21.98;8.18;;;6.40;99.90;;;;;;4899273;29;20130;-85
2022/03/30 04:31:28;;;;;;;26.23;11.02;;;6.50;99.90;;;;;;4914858;29;20381;-85
2022/03/30 04:33:54;;;;;;;18.75;9.65;;;6.40;99.90;;;;;;4901533;29;20035;-85
2022/03/30 04:36:20;;;;;;;20.05;9.63;;;6.50;99.90;;;;;;4902571;29;20138;-86
2022/03/30 04:38:46;;;;;;;25.38;9.20;;;6.50;99.90;;;;;;4914593;29;20555;-85
2022/03/30 04:41:12;;;;;;;23.08;9.00;;;6.50;99.90;;;;;;4928344;29;20043;-85
2022/03/30 04:43:38;;;;;;;15.07;6.97;;;6.50;99.90;;;;;;4912476;29;20130;-86
2022/03/30 04:46:05;;;;;;;23.63;9.32;;;6.50;99.90;;;;;;4895295;29;20043;-85
2022/03/30 04:48:32;;;;;;;22.25;8.95;;;6.50;99.90;;;;;;4897008;29;20443;-85
2022/03/30 04:50:58;;;;;;;23.15;9.70;;;6.50;99.90;;;;;;4898736;29;20031;-84
2022/03/30 04:53:23;;;;;;;16.98;8.30;;;6.50;99.90;;;;;;4896528;29;20481;-85
2022/03/30 04:55:49;;;;;;;23.25;9.23;;;6.50;99.90;;;;;;4901605;29;20107;-86
2022/03/30 04:58:15;;;;;;;18.10;8.70;;;6.50;99.90;;;;;;4913660;29;20464;-85
2022/03/30 05:00:41;;;;;;;24.80;9.07;;;6.50;99.90;;;;;;4931105;29;20559;-85
2022/03/30 05:03:07;;;;;;;18.50;7.78;;;6.50;99.90;;;;;;4896681;29;20061;-83
2022/03/30 05:05:33;;;;;;;19.98;8.77;;;6.50;99.90;;;;;;4895768;29;20057;-86
2022/03/30 05:07:59;;;;;;;15.65;7.13;;;6.50;99.90;;;;;;4913481;29;20040;-86
2022/03/30 05:10:25;;;;;;;26.10;9.00;;;6.50;99.90;;;;;;4897524;29;20487;-86
2022/03/30 05:12:51;;;;;;;21.98;8.75;;;6.50;99.90;;;;;;4925153;29;20040;-85
2022/03/30 05:15:17;;;;;;;19.08;8.55;;;6.50;99.90;;;;;;4913585;29;20035;-86
2022/03/30 05:17:44;;;;;;;27.95;11.13;;;6.40;99.90;;;;;;4910373;29;20059;-85
2022/03/30 05:20:14;;;;;;;21.38;8.82;;;6.50;99.90;;;;;;4896527;29;20835;-86
2022/03/30 05:22:41;;;;;;;23.17;8.55;;;6.40;99.90;;;;;;4896647;29;20044;-85
2022/03/30 05:25:07;;;;;;;19.25;7.32;;;6.40;99.90;;;;;;4912966;29;20492;-86
2022/03/30 05:27:33;;;;;;;22.20;9.13;;;6.40;99.90;;;;;;4899287;29;20043;-86
2022/03/30 05:29:59;;;;;;;18.48;8.30;;;6.40;99.90;;;;;;4911083;29;20034;-85
2022/03/30 05:32:25;;;;;;;25.98;9.45;;;6.40;99.90;;;;;;4929944;29;20422;-86
2022/03/30 05:34:51;;;;;;;20.02;7.97;;;6.50;99.90;;;;;;4899028;29;20090;-86
2022/03/30 05:37:18;;;;;;;22.88;8.15;;;6.40;99.90;;;;;;4911999;29;20047;-85
2022/03/30 05:39:45;;;;;;;22.20;8.10;;;6.40;99.90;;;;;;4911600;29;20036;-85
2022/03/30 05:42:12;;;;;;;15.55;7.90;;;6.40;99.90;;;;;;4910779;29;20087;-85
2022/03/30 05:44:39;;;;;;;18.20;7.30;;;6.40;99.90;;;;;;4912495;29;20047;-85
2022/03/30 05:47:09;;;;;;;16.45;6.50;;;6.40;99.90;;;;;;4895998;29;20087;-86
2022/03/30 05:49:36;;;;;;;19.65;6.93;;;6.40;99.90;;;;;;4895443;29;20155;-86
2022/03/30 05:52:03;;;;;;;15.88;6.28;;;6.40;99.90;;;;;;4916339;29;20044;-85
2022/03/30 05:54:28;;;;;;;15.90;7.53;;;6.40;99.90;;;;;;4886877;29;20509;-85
2022/03/30 05:57:03;;;;;;;14.73;6.15;;;6.30;99.90;;;;;;4917081;29;20162;-85
2022/03/30 05:59:34;;;;;;;15.98;5.78;;;6.30;99.90;;;;;;4911364;29;20420;-85
2022/03/30 06:02:02;;;;;;;10.85;5.20;;;6.40;99.90;;;;;;4913852;29;20430;-85
2022/03/30 06:04:28;;;;;;;11.07;4.40;;;6.30;99.90;;;;;;4931322;29;20400;-85
2022/03/30 06:06:54;;;;;;;10.82;4.57;;;6.40;99.90;;;;;;4915080;29;20409;-85
2022/03/30 06:09:20;;;;;;;10.65;3.22;;;6.40;99.90;;;;;;4916675;29;20066;-85
2022/03/30 06:11:47;;;;;;;7.18;3.85;;;6.30;99.90;;;;;;4898109;29;20038;-85
2022/03/30 06:14:14;;;;;;;5.90;3.00;;;6.30;99.90;;;;;;4900961;29;20040;-86
2022/03/30 06:16:41;;;;;;;8.15;3.33;;;6.30;99.90;;;;;;4899741;29;20032;-85
2022/03/30 06:19:09;;;;;;;10.63;3.25;;;6.30;99.90;;;;;;4912464;29;20079;-85
2022/03/30 06:21:34;;;;;;;4.85;1.73;;;6.30;99.90;;;;;;4902071;29;20511;-85
2022/03/30 06:24:01;;;;;;;7.32;2.03;;;6.40;99.90;;;;;;4914684;29;20085;-85
2022/03/30 06:26:27;;;;;;;4.72;1.77;;;6.40;99.90;;;;;;4899494;29;20489;-85
2022/03/30 06:28:53;;;;;;;7.20;1.50;;;6.40;99.90;;;;;;4916756;29;20067;-84
2022/03/30 06:31:19;;;;;;;3.72;1.40;;;6.40;99.90;;;;;;4916932;29;20455;-85
2022/03/30 06:33:46;;;;;;;4.65;1.50;;;6.40;99.90;;;;;;4916538;29;20145;-85
2022/03/30 06:36:12;;;;;;;2.70;0.82;;;6.40;99.90;;;;;;4901250;29;20051;-84
2022/03/30 06:38:39;;;;;;;3.80;0.70;;;6.40;99.90;;;;;;4916825;29;20047;-85
2022/03/30 06:41:07;;;;;;;3.15;0.70;;;6.50;99.90;;;;;;4906040;29;20178;-85
2022/03/30 06:43:33;;;;;;;1.33;0.52;;;6.50;99.90;;;;;;4901712;29;20098;-85
2022/03/30 06:45:59;;;;;;;2.92;0.47;;;6.60;99.90;;;;;;4898666;29;20043;-85
2022/03/30 06:48:25;;;;;;;2.17;0.60;;;6.50;99.90;;;;;;4914472;29;20408;-85
2022/03/30 06:50:52;;;;;;;1.77;0.63;;;6.50;99.90;;;;;;4932019;29;20107;-85
2022/03/30 06:53:17;;;;;;;2.25;0.52;;;6.60;99.90;;;;;;4911585;29;20062;-85
2022/03/30 06:55:43;;;;;;;1.98;0.47;;;6.60;99.90;;;;;;4911357;29;20044;-85
2022/03/30 06:58:09;;;;;;;1.23;0.50;;;6.60;99.90;;;;;;4901827;29;20083;-85
2022/03/30 07:00:34;;;;;;;3.20;0.50;;;6.70;99.90;;;;;;4915396;29;20412;-85
2022/03/30 07:03:00;;;;;;;1.00;0.40;;;6.70;99.90;;;;;;4899996;29;20571;-85
2022/03/30 07:05:26;;;;;;;1.30;0.30;;;6.80;99.90;;;;;;4913360;29;20111;-85
2022/03/30 07:10:49;;;;;;;3.15;0.47;;;6.80;99.90;;;;;;4896215;29;20446;-85
2022/03/30 07:13:15;;;;;;;1.35;0.30;;;6.80;99.90;;;;;;4883653;29;20058;-85
2022/03/30 07:15:41;;;;;;;0.88;0.50;;;6.80;99.90;;;;;;4917317;29;20039;-84
2022/03/30 07:18:08;;;;;;;1.25;0.40;;;6.80;99.90;;;;;;4915426;29;20174;-85
2022/03/30 07:20:35;;;;;;;1.02;0.20;;;7.00;99.90;;;;;;4899222;29;20083;-85
2022/03/30 07:23:01;;;;;;;0.63;0.32;;;7.00;99.90;;;;;;4904121;29;20417;-85
2022/03/30 07:25:29;;;;;;;1.13;0.30;;;7.10;99.90;;;;;;4899612;29;20047;-85
2022/03/30 07:27:58;;;;;;;1.08;0.30;;;7.10;99.90;;;;;;4918458;29;20492;-85
2022/03/30 07:30:25;;;;;;;1.30;0.40;;;7.20;99.90;;;;;;4900218;29;20496;-84
2022/03/30 07:32:52;;;;;;;1.48;0.32;;;7.20;99.90;;;;;;4900184;29;20051;-84
2022/03/30 07:35:20;;;;;;;0.55;0.22;;;7.30;99.90;;;;;;4914626;29;20107;-84
2022/03/30 07:37:46;;;;;;;1.80;0.55;;;7.40;99.90;;;;;;4884443;29;20126;-84
2022/03/30 07:40:18;;;;;;;1.40;0.40;;;7.50;99.90;;;;;;4902720;29;20046;-84
2022/03/30 07:42:46;;;;;;;1.92;0.47;;;7.50;99.90;;;;;;4915624;29;20039;-85
2022/03/30 07:45:12;;;;;;;1.40;0.50;;;7.50;99.90;;;;;;4913513;29;20055;-83
2022/03/30 07:47:38;;;;;;;3.03;0.60;;;7.60;99.90;;;;;;4895632;29;20047;-84
2022/03/30 07:50:05;;;;;;;2.03;0.45;;;7.60;99.90;;;;;;4912325;29;20095;-85
2022/03/30 07:52:31;;;;;;;2.83;0.50;;;7.60;99.90;;;;;;4897675;29;20123;-85
2022/03/30 07:54:57;;;;;;;1.17;0.50;;;7.60;99.90;;;;;;4899293;29;20315;-84
2022/03/30 07:57:26;;;;;;;1.85;0.50;;;7.70;99.90;;;;;;4913536;29;20427;-85
2022/03/30 08:00:00;;;;;;;1.42;0.60;;;7.70;99.90;;;;;;4916958;29;20405;-84
2022/03/30 08:02:27;;;;;;;1.67;0.63;;;7.70;99.90;;;;;;4891011;29;20512;-85
2022/03/30 08:04:54;;;;;;;1.25;0.43;;;7.80;99.90;;;;;;4913320;29;20464;-84
2022/03/30 08:07:21;;;;;;;1.23;0.50;;;7.80;99.90;;;;;;4912435;29;20039;-84
2022/03/30 08:09:47;;;;;;;1.73;0.60;;;7.90;99.90;;;;;;4899330;29;20035;-85
2022/03/30 08:12:14;;;;;;;3.70;0.73;;;8.00;99.90;;;;;;4913895;29;20043;-85
2022/03/30 08:14:41;;;;;;;1.90;0.65;;;8.10;99.90;;;;;;4884707;29;20035;-84
2022/03/30 08:17:07;;;;;;;1.50;0.50;;;8.10;99.90;;;;;;4915595;29;20036;-84
2022/03/30 08:19:33;;;;;;;3.08;0.80;;;8.10;99.90;;;;;;4898164;29;20051;-85
2022/03/30 08:24:46;;;;;;;5.25;1.00;;;8.20;99.90;;;;;;4916459;29;20076;-85
2022/03/30 08:27:24;;;;;;;1.85;0.80;;;8.30;99.90;;;;;;4919262;29;20043;-83
2022/03/30 08:29:51;;;;;;;2.97;0.70;;;8.40;99.90;;;;;;4884949;29;20036;-85
2022/03/30 08:32:21;;;;;;;1.20;0.57;;;8.50;99.80;;;;;;4899523;29;20054;-84
2022/03/30 08:34:47;;;;;;;2.63;0.65;;;8.50;99.10;;;;;;4913479;29;20048;-85
2022/03/30 08:37:13;;;;;;;2.40;0.60;;;8.50;99.00;;;;;;4898211;29;20099;-84
2022/03/30 08:39:39;;;;;;;2.90;0.50;;;8.60;98.60;;;;;;4914089;29;20488;-85
2022/03/30 08:42:06;;;;;;;2.30;0.40;;;8.70;98.10;;;;;;4895905;29;20044;-85
2022/03/30 08:44:33;;;;;;;2.80;0.60;;;8.70;97.60;;;;;;4926910;29;20040;-84
2022/03/30 08:46:59;;;;;;;2.30;0.90;;;8.70;96.90;;;;;;4896902;29;20130;-85
2022/03/30 08:49:26;;;;;;;1.40;0.60;;;8.80;96.40;;;;;;4898996;29;20405;-85
2022/03/30 08:51:53;;;;;;;3.00;0.55;;;8.90;96.40;;;;;;4900454;29;20047;-85
2022/03/30 08:54:19;;;;;;;0.82;0.35;;;8.90;95.90;;;;;;4915668;29;20046;-85
2022/03/30 08:56:46;;;;;;;1.80;0.50;;;9.00;95.80;;;;;;4900362;29;20058;-84
2022/03/30 08:59:17;;;;;;;3.13;0.47;;;9.00;95.30;;;;;;4908507;29;20071;-83
2022/03/30 09:01:44;;;;;;;2.35;0.47;;;9.10;95.20;;;;;;4919336;29;20521;-84
2022/03/30 09:04:12;;;;;;;2.20;0.50;;;9.20;95.30;;;;;;4894936;29;20036;-85
2022/03/30 09:06:49;;;;;;;2.20;0.50;;;9.30;94.20;;;;;;4909026;29;20051;-85
2022/03/30 09:09:26;;;;;;;2.90;0.50;;;9.30;92.50;;;;;;4910141;29;20044;-86
2022/03/30 09:11:55;;;;;;;2.67;0.40;;;9.40;92.20;;;;;;4906394;29;20040;-85
2022/03/30 09:14:31;;;;;;;2.03;0.50;;;9.40;91.20;;;;;;4914259;29;20107;-85
2022/03/30 09:17:00;;;;;;;1.90;0.40;;;9.30;90.30;;;;;;4913294;29;20809;-85
2022/03/30 09:19:28;;;;;;;1.17;0.30;;;9.30;88.80;;;;;;4912740;29;20048;-85
2022/03/30 09:22:00;;;;;;;0.77;0.30;;;9.40;88.00;;;;;;4911960;29;20666;-85
2022/03/30 09:24:28;;;;;;;0.93;0.50;;;9.50;84.40;;;;;;4879690;29;20040;-85
2022/03/30 09:26:56;;;;;;;1.27;0.65;;;9.60;86.60;;;;;;4913311;29;20111;-85
2022/03/30 09:29:28;;;;;;;2.17;0.30;;;9.80;85.00;;;;;;4915663;29;20035;-84
2022/03/30 09:31:54;;;;;;;3.42;0.50;;;9.90;82.60;;;;;;4896148;29;20043;-85
2022/03/30 09:34:20;;;;;;;2.90;0.50;;;10.10;82.30;;;;;;4899188;29;20442;-85
2022/03/30 09:36:50;;;;;;;2.25;0.40;;;10.20;81.80;;;;;;4909028;29;20071;-85
2022/03/30 09:39:37;;;;;;;1.92;0.40;;;10.20;79.60;;;;;;4908845;29;20044;-85
2022/03/30 09:42:05;;;;;;;4.25;0.50;;;10.30;74.80;;;;;;4893419;29;20149;-84
2022/03/30 09:44:53;;;;;;;2.67;0.45;;;10.40;78.00;;;;;;4908100;29;20078;-85
2022/03/30 09:47:20;;;;;;;3.13;0.55;;;10.40;76.90;;;;;;4877384;29;20583;-85
2022/03/30 09:49:48;;;;;;;4.47;0.70;;;10.50;78.00;;;;;;4892947;29;20674;-85
2022/03/30 09:52:29;;;;;;;3.67;0.45;;;10.50;77.30;;;;;;4889563;29;20048;-85
2022/03/30 09:54:58;;;;;;;2.10;0.50;;;10.60;73.60;;;;;;4911830;29;20052;-84
2022/03/30 09:57:41;;;;;;;2.15;0.40;;;10.60;75.10;;;;;;4894882;29;20108;-85
2022/03/30 10:00:18;;;;;;;3.22;0.73;;;10.60;73.30;;;;;;4889192;29;20091;-85
2022/03/30 10:02:48;;;;;;;2.60;0.40;;;10.70;70.00;;;;;;4904335;29;20118;-85
2022/03/30 10:05:16;;;;;;;2.75;0.40;;;10.80;70.80;;;;;;4906123;29;20048;-85
2022/03/30 10:07:45;;;;;;;4.75;0.50;;;10.70;69.30;;;;;;4890069;29;20033;-84
2022/03/30 10:10:13;;;;;;;2.90;0.50;;;10.80;69.20;;;;;;4895564;29;20489;-85
2022/03/30 10:12:39;;;;;;;3.00;0.30;;;10.90;68.30;;;;;;4894255;29;20047;-86
2022/03/30 10:15:07;;;;;;;2.25;0.35;;;10.90;67.80;;;;;;4897153;29;20046;-86
2022/03/30 10:17:33;;;;;;;1.73;0.45;;;10.90;67.90;;;;;;4893393;29;20039;-85
2022/03/30 10:20:01;;;;;;;2.17;0.40;;;11.00;68.20;;;;;;4909655;29;20411;-85
2022/03/30 10:23:04;;;;;;;3.08;0.50;;;11.00;66.50;;;;;;4909555;29;20036;-85
2022/03/30 10:25:52;;;;;;;2.15;0.73;;;11.00;61.60;;;;;;4907032;29;20123;-85
2022/03/30 10:28:30;;;;;;;2.38;0.40;;;11.00;60.60;;;;;;4908209;29;20059;-85
2022/03/30 10:30:57;;;;;;;2.78;0.32;;;11.10;64.20;;;;;;4893591;29;20086;-85
2022/03/30 10:33:36;;;;;;;1.73;0.50;;;11.10;65.20;;;;;;4911335;29;20047;-85
2022/03/30 10:36:24;;;;;;;2.33;0.47;;;11.20;63.50;;;;;;4896978;29;20040;-85
2022/03/30 10:39:24;;;;;;;1.88;0.43;;;11.20;64.10;;;;;;4892740;29;20464;-84
2022/03/30 10:42:10;;;;;;;3.20;0.50;;;11.20;63.60;;;;;;4898485;29;20049;-86
2022/03/30 10:44:49;;;;;;;2.03;0.40;;;11.20;61.10;;;;;;4906023;29;20040;-85
2022/03/30 10:47:23;;;;;;;1.27;0.40;;;11.30;63.00;;;;;;4910019;29;20048;-86
2022/03/30 10:49:57;;;;;;;3.05;0.60;;;11.30;61.30;;;;;;4912835;29;20083;-85
2022/03/30 10:52:35;;;;;;;2.88;0.40;;;11.40;63.40;;;;;;4909237;29;20040;-85
2022/03/30 10:55:13;;;;;;;1.90;0.50;;;11.50;62.90;;;;;;4905155;29;20123;-86
2022/03/30 10:57:51;;;;;;;4.60;0.60;;;11.60;61.40;;;;;;4908198;29;21271;-84
2022/03/30 11:00:23;;;;;;;2.45;0.57;;;11.70;61.60;;;;;;4926222;29;20126;-85
2022/03/30 11:02:49;;;;;;;1.83;0.47;;;11.70;62.40;;;;;;4929665;29;20047;-84
2022/03/30 11:05:24;;;;;;;3.92;0.85;;;11.80;61.60;;;;;;4899856;29;20048;-85
2022/03/30 11:07:50;;;;;;;3.22;0.60;;;11.90;61.30;;;;;;4911051;29;20055;-85
2022/03/30 11:10:17;;;;;;;1.77;0.50;;;11.90;61.00;;;;;;4915236;29;20044;-85
2022/03/30 11:13:05;;;;;;;2.30;0.50;;;12.00;61.60;;;;;;4914966;29;20036;-85
2022/03/30 11:15:57;;;;;;;2.78;0.50;;;12.10;58.20;;;;;;4915287;29;20039;-85
2022/03/30 11:18:22;;;;;;;1.30;0.50;;;12.20;60.00;;;;;;4917264;29;20047;-85
2022/03/30 11:21:17;;;;;;;2.45;0.80;;;12.20;59.80;;;;;;4897244;29;20056;-85
2022/03/30 11:24:09;;;;;;;1.90;0.65;;;12.20;57.00;;;;;;4927262;29;20044;-84
2022/03/30 11:27:06;;;;;;;3.35;0.52;;;12.20;57.10;;;;;;4928330;29;20079;-85
2022/03/30 11:29:41;;;;;;;2.30;0.98;;;12.20;56.00;;;;;;4913208;29;20479;-86
2022/03/30 11:32:19;;;;;;;1.15;0.50;;;12.10;58.90;;;;;;4908531;29;20461;-85
2022/03/30 11:34:49;;;;;;;1.88;0.90;;;12.00;57.70;;;;;;4927788;29;20047;-85
2022/03/30 11:37:16;;;;;;;2.53;1.00;;;11.90;58.50;;;;;;4915097;29;20055;-84
2022/03/30 11:39:42;;;;;;;2.83;0.88;;;11.80;58.70;;;;;;4904645;29;20052;-86
2022/03/30 11:42:08;;;;;;;4.10;1.10;;;11.80;58.50;;;;;;4899972;29;20488;-86
2022/03/30 11:47:24;;;;;;;1.88;1.10;;;11.70;59.50;;;;;;4929776;29;20048;-86
2022/03/30 11:49:51;;;;;;;2.03;0.70;;;11.70;59.20;;;;;;4915963;29;20785;-86
2022/03/30 11:52:18;;;;;;;3.00;1.30;;;11.90;59.40;;;;;;4929948;29;20361;-86
2022/03/30 11:54:51;;;;;;;1.48;0.70;;;12.10;59.70;;;;;;4913405;29;20421;-85
2022/03/30 11:57:18;;;;;;;2.13;0.90;;;12.10;57.40;;;;;;4912158;29;20040;-86
2022/03/30 11:59:55;;;;;;;3.53;0.60;;;12.30;56.50;;;;;;4928300;29;20066;-85
2022/03/30 12:02:22;;;;;;;2.47;0.60;;;12.30;55.30;;;;;;4929864;29;20098;-87
2022/03/30 12:04:48;;;;;;;2.10;0.73;;;12.30;55.50;;;;;;4899249;29;20040;-86
2022/03/30 12:07:19;;;;;;;1.83;0.60;;;12.30;55.90;;;;;;4930109;29;20176;-85
2022/03/30 12:10:05;;;;;;;4.00;0.90;;;12.30;56.30;;;;;;4895783;29;20441;-86
2022/03/30 12:12:36;;;;;;;2.90;0.88;;;12.30;55.60;;;;;;4913417;29;20265;-86
2022/03/30 12:15:16;;;;;;;2.08;0.70;;;12.10;56.30;;;;;;4876033;29;20118;-86
2022/03/30 12:17:43;;;;;;;2.17;0.85;;;11.90;56.80;;;;;;4909337;29;20479;-85
2022/03/30 12:20:10;;;;;;;2.55;0.65;;;11.80;58.60;;;;;;4912421;29;20086;-87
2022/03/30 12:22:37;;;;;;;2.55;0.77;;;11.70;60.30;;;;;;4892444;29;20213;-87
2022/03/30 12:25:15;;;;;;;2.35;0.60;;;11.80;60.70;;;;;;4895901;29;20051;-86
2022/03/30 12:27:41;;;;;;;3.17;0.60;;;11.70;60.00;;;;;;4910254;29;20091;-87
2022/03/30 12:30:07;;;;;;;3.85;0.60;;;11.70;60.60;;;;;;4927637;29;20040;-86
2022/03/30 12:32:33;;;;;;;1.95;0.80;;;11.70;60.20;;;;;;4895750;29;20453;-86
2022/03/30 12:35:14;;;;;;;3.55;0.70;;;11.60;60.10;;;;;;4911234;29;20059;-87
2022/03/30 12:37:43;;;;;;;2.67;0.60;;;11.60;59.80;;;;;;4926904;29;20070;-86
2022/03/30 12:40:12;;;;;;;1.48;0.68;;;11.60;60.70;;;;;;4891283;29;20059;-86
2022/03/30 12:42:40;;;;;;;2.75;0.60;;;11.50;59.50;;;;;;4896458;29;20047;-86
2022/03/30 12:45:11;;;;;;;3.60;0.75;;;11.50;59.20;;;;;;4905677;29;20039;-85
2022/03/30 12:47:50;;;;;;;1.98;0.50;;;11.40;59.40;;;;;;4926251;29;20126;-85
2022/03/30 12:50:25;;;;;;;2.92;0.50;;;11.40;57.60;;;;;;4903981;29;20089;-86
2022/03/30 12:52:53;;;;;;;3.55;1.00;;;11.40;58.70;;;;;;4897057;29;20078;-86
2022/03/30 12:55:27;;;;;;;1.63;0.52;;;11.50;59.20;;;;;;4910131;29;20040;-87
2022/03/30 12:58:14;;;;;;;2.80;0.88;;;11.60;59.60;;;;;;4911412;29;20043;-86
2022/03/30 13:00:41;;;;;;;2.05;0.40;;;11.60;56.70;;;;;;4909889;29;20074;-86
2022/03/30 13:03:11;;;;;;;4.70;0.60;;;11.80;57.50;;;;;;4905405;29;20048;-85
2022/03/30 13:05:40;;;;;;;1.63;0.55;;;12.00;56.30;;;;;;4916840;29;20130;-87